createdAt,value
2023-03-06T00:01:29.905Z,47.17
2023-03-06T00:03:57.508Z,50.60
2023-03-06T00:06:26.536Z,49.83
2023-03-06T00:08:56.787Z,49.25
2023-03-06T00:11:27.476Z,51.72
2023-03-06T00:13:55.575Z,50.67
2023-03-06T00:16:23.450Z,50.85
2023-03-06T00:18:51.236Z,50.08
2023-03-06T00:21:19.035Z,50.78
2023-03-06T00:23:49.516Z,48.30
2023-03-06T00:26:17.203Z,54.80
2023-03-06T00:28:44.852Z,50.30
2023-03-06T00:31:12.456Z,57.40
2023-03-06T00:33:39.989Z,56.17
2023-03-06T00:36:09.374Z,52.42
2023-03-06T00:38:37.367Z,54.03
2023-03-06T00:41:09.712Z,51.20
2023-03-06T00:43:37.978Z,53.85
2023-03-06T00:46:06.322Z,47.63
2023-03-06T00:48:34.619Z,48.47
2023-03-06T00:51:03.999Z,49.20
2023-03-06T00:53:31.847Z,51.20
2023-03-06T00:56:05.564Z,53.28
2023-03-06T00:58:33.131Z,52.15
2023-03-06T01:01:00.987Z,48.92
2023-03-06T01:03:28.616Z,51.90
2023-03-06T01:05:57.362Z,53.92
2023-03-06T01:08:24.914Z,52.20
2023-03-06T01:10:52.448Z,51.47
2023-03-06T01:13:21.279Z,49.60
2023-03-06T01:15:48.962Z,48.55
2023-03-06T01:18:16.580Z,50.30
2023-03-06T01:20:44.031Z,50.50
2023-03-06T01:23:11.698Z,49.85
2023-03-06T01:25:39.225Z,53.63
2023-03-06T01:28:06.645Z,55.63
2023-03-06T01:30:34.251Z,51.65
2023-03-06T01:33:01.900Z,51.97
2023-03-06T01:35:32.014Z,53.25
2023-03-06T01:37:59.671Z,52.90
2023-03-06T01:40:34.313Z,53.22
2023-03-06T01:43:26.862Z,53.38
2023-03-06T01:46:16.342Z,53.72
2023-03-06T01:48:44.897Z,53.10
2023-03-06T01:51:12.663Z,49.97
2023-03-06T01:53:41.614Z,49.45
2023-03-06T01:56:11.376Z,47.75
2023-03-06T01:58:40.216Z,47.15
2023-03-06T02:01:09.973Z,48.78
2023-03-06T02:03:39.535Z,50.42
2023-03-06T02:06:08.120Z,47.28
2023-03-06T02:08:35.933Z,48.55
2023-03-06T02:11:17.646Z,50.80
2023-03-06T02:13:46.756Z,48.92
2023-03-06T02:16:16.467Z,51.45
2023-03-06T02:18:47.150Z,49.05
2023-03-06T02:21:28.645Z,47.17
2023-03-06T02:24:29.663Z,46.25
2023-03-06T02:26:59.249Z,45.60
2023-03-06T02:29:29.387Z,47.38
2023-03-06T02:32:01.464Z,46.65
2023-03-06T02:34:29.442Z,45.42
2023-03-06T02:37:09.129Z,42.63
2023-03-06T02:40:00.499Z,47.88
2023-03-06T02:42:29.046Z,48.83
2023-03-06T02:44:59.339Z,51.20
2023-03-06T02:47:26.931Z,46.92
2023-03-06T02:49:55.126Z,46.28
2023-03-06T02:52:22.551Z,45.88
2023-03-06T02:54:50.091Z,50.17
2023-03-06T02:57:17.953Z,44.03
2023-03-06T02:59:46.228Z,43.88
2023-03-06T03:02:13.987Z,48.80
2023-03-06T03:04:41.545Z,45.47
2023-03-06T03:07:10.870Z,49.47
2023-03-06T03:09:38.895Z,45.42
2023-03-06T03:12:07.419Z,43.45
2023-03-06T03:14:35.769Z,44.95
2023-03-06T03:17:04.138Z,45.88
2023-03-06T03:19:31.668Z,45.80
2023-03-06T03:21:59.412Z,47.15
2023-03-06T03:24:27.545Z,47.10
2023-03-06T03:26:55.904Z,44.97
2023-03-06T03:29:25.771Z,43.05
2023-03-06T03:31:54.298Z,45.65
2023-03-06T03:34:28.899Z,44.75
2023-03-06T03:36:59.589Z,46.38
2023-03-06T03:39:28.478Z,45.97
2023-03-06T03:42:00.127Z,46.38
2023-03-06T03:44:31.067Z,45.17
2023-03-06T03:47:01.230Z,43.50
2023-03-06T03:49:28.969Z,47.33
2023-03-06T03:51:56.970Z,43.38
2023-03-06T03:54:26.484Z,44.75
2023-03-06T03:56:55.028Z,41.70
2023-03-06T03:59:29.762Z,43.72
2023-03-06T04:02:05.890Z,42.88
2023-03-06T04:04:39.230Z,42.00
2023-03-06T04:07:07.350Z,42.72
2023-03-06T04:09:34.989Z,42.33
2023-03-06T04:12:06.535Z,41.63
2023-03-06T04:14:36.106Z,41.38
2023-03-06T04:17:05.454Z,38.65
2023-03-06T04:19:33.569Z,40.08
2023-03-06T04:22:02.457Z,39.42
2023-03-06T04:24:32.166Z,42.53
2023-03-06T04:27:00.131Z,42.63
2023-03-06T04:29:37.583Z,42.42
2023-03-06T04:32:05.405Z,43.25
2023-03-06T04:34:33.161Z,43.60
2023-03-06T04:37:01.473Z,44.00
2023-03-06T04:39:34.016Z,40.80
2023-03-06T04:42:02.791Z,47.22
2023-03-06T04:44:33.072Z,44.90
2023-03-06T04:47:00.760Z,46.47
2023-03-06T04:49:28.263Z,53.95
2023-03-06T04:52:01.014Z,51.58
2023-03-06T04:54:28.722Z,59.38
2023-03-06T04:56:56.308Z,59.03
2023-03-06T04:59:23.825Z,60.42
2023-03-06T05:01:51.477Z,63.90
2023-03-06T05:04:18.976Z,62.70
2023-03-06T05:06:47.574Z,66.97
2023-03-06T05:09:15.587Z,60.60
2023-03-06T05:11:43.192Z,62.05
2023-03-06T05:14:10.619Z,62.47
2023-03-06T05:16:38.188Z,62.15
2023-03-06T05:19:05.719Z,62.22
2023-03-06T05:21:33.183Z,67.53
2023-03-06T05:24:00.710Z,63.85
2023-03-06T05:26:28.197Z,65.78
2023-03-06T05:28:55.714Z,68.97
2023-03-06T05:31:25.055Z,65.10
2023-03-06T05:34:01.943Z,66.00
2023-03-06T05:36:34.673Z,69.65
2023-03-06T05:45:30.639Z,68.72
2023-03-06T05:47:58.341Z,65.97
2023-03-06T05:50:32.336Z,69.60
2023-03-06T05:53:00.304Z,67.18
2023-03-06T05:55:27.979Z,70.00
2023-03-06T05:57:55.577Z,69.45
2023-03-06T06:00:25.558Z,69.43
2023-03-06T06:02:53.489Z,67.47
2023-03-06T06:05:21.590Z,69.45
2023-03-06T06:07:54.259Z,68.90
2023-03-06T06:10:53.230Z,70.10
2023-03-06T06:13:21.526Z,69.15
2023-03-06T06:16:53.671Z,72.32
2023-03-06T06:25:42.960Z,65.93
2023-03-06T06:28:17.793Z,69.10
2023-03-06T06:40:22.958Z,72.18
2023-03-06T06:43:16.181Z,69.70
2023-03-06T06:46:44.654Z,72.80
2023-03-06T06:54:03.790Z,71.05
2023-03-06T06:56:57.277Z,67.20
2023-03-06T06:59:54.113Z,67.28
2023-03-06T07:02:22.985Z,66.35
2023-03-06T07:05:04.225Z,65.30
2023-03-06T07:07:38.193Z,65.57
2023-03-06T07:10:08.469Z,63.20
2023-03-06T07:12:39.375Z,62.25
2023-03-06T07:15:08.181Z,61.50
2023-03-06T07:17:35.813Z,58.92
2023-03-06T07:20:04.018Z,62.40
2023-03-06T07:22:38.717Z,59.80
2023-03-06T07:25:16.186Z,62.55
2023-03-06T07:27:46.992Z,58.45
2023-03-06T07:30:21.002Z,59.60
2023-03-06T07:32:48.482Z,59.38
2023-03-06T07:35:20.315Z,58.67
2023-03-06T07:37:48.362Z,58.95
2023-03-06T07:40:16.761Z,65.28
2023-03-06T07:42:44.146Z,63.38
2023-03-06T07:45:14.041Z,56.33
2023-03-06T07:47:43.174Z,58.42
2023-03-06T07:50:11.253Z,57.97
2023-03-06T07:52:38.683Z,64.85
2023-03-06T07:55:06.693Z,59.80
2023-03-06T07:57:34.211Z,61.38
2023-03-06T08:00:01.688Z,61.53
2023-03-06T08:02:29.086Z,62.40
2023-03-06T08:04:57.008Z,60.30
2023-03-06T08:07:24.418Z,66.57
2023-03-06T08:09:52.184Z,56.88
2023-03-06T08:12:19.633Z,60.25
2023-03-06T08:14:47.149Z,61.30
2023-03-06T08:17:14.649Z,64.72
2023-03-06T08:19:42.045Z,62.28
2023-03-06T08:22:11.199Z,65.50
2023-03-06T08:24:38.631Z,61.97
2023-03-06T08:27:07.117Z,66.82
2023-03-06T08:29:35.674Z,61.45
2023-03-06T08:32:03.319Z,65.57
2023-03-06T08:34:30.814Z,59.08
2023-03-06T08:36:58.250Z,59.65
2023-03-06T08:39:25.619Z,62.97
2023-03-06T08:41:53.023Z,64.03
2023-03-06T08:44:20.412Z,66.03
2023-03-06T08:46:47.859Z,60.45
2023-03-06T08:49:15.433Z,63.83
2023-03-06T08:51:43.106Z,64.80
2023-03-06T08:54:12.705Z,59.83
2023-03-06T08:56:40.531Z,60.15
2023-03-06T08:59:09.466Z,63.58
2023-03-06T09:01:38.219Z,60.58
2023-03-06T09:04:09.082Z,58.90
2023-03-06T09:06:40.108Z,58.90
2023-03-06T09:09:08.258Z,55.85
2023-03-06T09:11:36.061Z,54.47
2023-03-06T09:14:05.642Z,56.03
2023-03-06T09:16:33.423Z,56.80
2023-03-06T09:19:01.049Z,51.95
2023-03-06T09:21:28.766Z,57.88
2023-03-06T09:23:56.324Z,54.67
2023-03-06T09:26:32.771Z,53.05
2023-03-06T09:29:07.942Z,52.85
2023-03-06T09:31:35.506Z,51.90
2023-03-06T09:34:03.002Z,54.35
2023-03-06T09:36:30.489Z,53.38
2023-03-06T09:38:57.977Z,54.85
2023-03-06T09:41:27.529Z,49.38
2023-03-06T09:44:05.185Z,54.63
2023-03-06T09:46:44.681Z,51.92
2023-03-06T09:49:30.538Z,50.13
2023-03-06T09:54:46.493Z,45.25
2023-03-06T09:57:34.078Z,48.70
2023-03-06T10:00:11.786Z,49.38
2023-03-06T10:02:45.337Z,42.35
2023-03-06T10:05:26.229Z,42.25
2023-03-06T10:08:04.114Z,44.00
2023-03-06T10:10:46.802Z,43.42
2023-03-06T10:13:28.519Z,44.05
2023-03-06T10:16:04.663Z,47.78
2023-03-06T10:18:32.335Z,46.90
2023-03-06T10:21:18.748Z,47.67
2023-03-06T10:23:58.599Z,43.13
2023-03-06T10:26:32.656Z,41.67
2023-03-06T10:29:34.102Z,43.40
2023-03-06T10:32:13.789Z,40.03
2023-03-06T10:34:43.350Z,40.83
2023-03-06T10:37:31.581Z,42.35
2023-03-06T10:40:12.526Z,46.10
2023-03-06T10:42:40.016Z,42.47
2023-03-06T10:45:12.106Z,45.83
2023-03-06T10:47:40.416Z,42.80
2023-03-06T10:50:30.705Z,44.67
2023-03-06T10:53:07.139Z,44.45
2023-03-06T10:55:37.942Z,39.47
2023-03-06T10:58:32.490Z,40.25
2023-03-06T11:01:11.868Z,41.70
2023-03-06T11:03:39.565Z,42.83
2023-03-06T11:06:13.780Z,39.00
2023-03-06T11:08:44.523Z,43.03
2023-03-06T11:11:18.548Z,42.85
2023-03-06T11:13:59.074Z,40.58
2023-03-06T11:16:30.708Z,41.70
2023-03-06T11:19:17.702Z,37.35
2023-03-06T11:22:00.176Z,39.65
2023-03-06T11:24:37.392Z,39.80
2023-03-06T11:27:34.576Z,36.97
2023-03-06T11:30:46.398Z,36.22
2023-03-06T11:33:29.483Z,32.17
2023-03-06T11:36:14.015Z,34.42
2023-03-06T11:39:00.020Z,34.75
2023-03-06T11:41:54.249Z,35.63
2023-03-06T11:44:24.404Z,33.63
2023-03-06T11:47:13.960Z,32.25
2023-03-06T11:50:06.067Z,34.47
2023-03-06T11:52:54.094Z,34.42
2023-03-06T11:55:36.270Z,31.45
2023-03-06T11:58:12.919Z,34.50
2023-03-06T12:01:06.304Z,31.48
2023-03-06T12:04:19.728Z,33.10
2023-03-06T12:07:05.596Z,30.85
2023-03-06T12:10:23.676Z,33.58
2023-03-06T12:16:17.104Z,33.00
2023-03-06T12:18:57.032Z,30.40
2023-03-06T12:21:36.436Z,33.90
2023-03-06T12:24:31.753Z,28.95
2023-03-06T12:27:13.282Z,32.13
2023-03-06T12:29:59.221Z,31.67
2023-03-06T12:35:22.759Z,29.45
2023-03-06T12:38:05.518Z,32.42
2023-03-06T12:40:48.387Z,34.00
2023-03-06T12:43:27.668Z,30.25
2023-03-06T12:46:02.275Z,25.90
2023-03-06T12:48:35.272Z,31.33
2023-03-06T12:51:06.666Z,28.65
2023-03-06T12:53:36.036Z,28.25
2023-03-06T12:56:23.920Z,27.15
2023-03-06T12:59:02.772Z,28.77
2023-03-06T13:01:46.692Z,34.78
2023-03-06T13:04:36.084Z,27.33
2023-03-06T13:07:23.027Z,25.95
2023-03-06T13:10:09.005Z,30.05
2023-03-06T13:12:50.007Z,29.45
2023-03-06T13:16:11.509Z,30.05
2023-03-06T13:23:31.136Z,28.52
2023-03-06T13:28:48.773Z,28.48
2023-03-06T13:31:34.289Z,30.52
2023-03-06T13:34:36.766Z,30.98
2023-03-06T13:37:19.980Z,26.80
2023-03-06T13:39:59.195Z,32.22
2023-03-06T13:42:31.160Z,28.67
2023-03-06T13:45:08.859Z,26.17
2023-03-06T13:48:06.550Z,30.35
2023-03-06T13:50:36.253Z,28.58
2023-03-06T13:53:16.069Z,27.17
2023-03-06T13:56:17.141Z,30.73
2023-03-06T13:59:02.555Z,28.38
2023-03-06T14:01:42.192Z,30.73
2023-03-06T14:04:25.124Z,27.17
2023-03-06T14:07:05.629Z,29.42
2023-03-06T14:09:45.482Z,31.73
2023-03-06T14:12:26.065Z,29.13
2023-03-06T14:14:58.233Z,31.60
2023-03-06T14:17:32.814Z,28.27
2023-03-06T14:20:05.826Z,27.42
2023-03-06T14:22:33.521Z,27.77
2023-03-06T14:25:08.017Z,29.33
2023-03-06T14:27:45.255Z,26.13
2023-03-06T14:30:16.511Z,31.88
2023-03-06T14:32:44.963Z,25.88
2023-03-06T14:35:38.577Z,31.35
2023-03-06T18:51:53.163Z,26.17
